Time;durP1;ratioP1;P1;durP2;ratioP2;P2;SDS_P1;SDS_P2;PMS_P1;PMS_P2;Temp;Humidity;BMP_temperature;BMP_pressure;BME280_temperature;BME280_humidity;BME280_pressure;Samples;Min_cycle;Max_cycle;Signal;HPM_P1;HPM_P2
2023/01/22 00:01:24;;;;;;;8.27;6.60;;;;;;;;;;5002389;28;20141;-87
2023/01/22 00:03:52;;;;;;;9.50;6.85;;;;;;;;;;5007598;28;20038;-86
2023/01/22 00:06:18;;;;;;;8.93;7.13;;;;;;;;;;5007572;28;20034;-86
2023/01/22 00:08:45;;;;;;;9.93;7.18;;;;;;;;;;5005185;28;20042;-86
2023/01/22 00:11:11;;;;;;;9.07;7.15;;;;;;;;;;5007730;28;20516;-86
2023/01/22 00:13:37;;;;;;;9.02;6.90;;;;;;;;;;5009466;28;20049;-86
2023/01/22 00:16:03;;;;;;;9.50;7.15;;;;;;;;;;5010552;28;20045;-87
2023/01/22 00:18:29;;;;;;;9.77;7.70;;;;;;;;;;5010934;28;20060;-87
2023/01/22 00:20:56;;;;;;;9.25;7.45;;;;;;;;;;5008723;28;20042;-87
2023/01/22 00:23:22;;;;;;;12.23;7.35;;;;;;;;;;5007404;28;20050;-87
2023/01/22 00:25:48;;;;;;;10.38;7.15;;;;;;;;;;5010035;28;20107;-87
2023/01/22 00:28:15;;;;;;;10.05;7.68;;;;;;;;;;5025173;28;20473;-86
2023/01/22 00:30:41;;;;;;;10.18;7.65;;;;;;;;;;5010253;28;20062;-87
2023/01/22 00:33:07;;;;;;;11.07;7.75;;;;;;;;;;5013629;28;20046;-86
2023/01/22 00:35:34;;;;;;;10.30;7.72;;;;;;;;;;5011332;28;20040;-87
2023/01/22 00:38:00;;;;;;;10.32;8.15;;;;;;;;;;4994165;28;20103;-86
2023/01/22 00:40:26;;;;;;;10.40;7.82;;;;;;;;;;5009845;28;20046;-86
2023/01/22 00:42:52;;;;;;;9.52;7.90;;;;;;;;;;5008148;28;20561;-87
2023/01/22 00:45:18;;;;;;;10.38;8.05;;;;;;;;;;5007230;28;20133;-86
2023/01/22 00:47:44;;;;;;;10.82;7.72;;;;;;;;;;5013347;28;20099;-87
2023/01/22 00:50:10;;;;;;;9.95;7.93;;;;;;;;;;5009896;28;20125;-86
2023/01/22 00:52:36;;;;;;;10.88;8.07;;;;;;;;;;5005616;28;20112;-86
2023/01/22 00:55:03;;;;;;;9.90;7.95;;;;;;;;;;5011694;28;20176;-86
2023/01/22 00:57:29;;;;;;;9.68;7.68;;;;;;;;;;5005637;28;20137;-85
2023/01/22 00:59:55;;;;;;;9.18;7.22;;;;;;;;;;5008556;28;20160;-85
2023/01/22 01:02:21;;;;;;;9.73;7.35;;;;;;;;;;5007303;28;20481;-87
2023/01/22 01:04:47;;;;;;;11.15;8.23;;;;;;;;;;5009058;28;20046;-86
2023/01/22 01:07:13;;;;;;;9.75;7.63;;;;;;;;;;5009024;28;20100;-86
2023/01/22 01:09:39;;;;;;;9.43;7.47;;;;;;;;;;5006468;28;20061;-86
2023/01/22 01:12:07;;;;;;;11.05;7.95;;;;;;;;;;5002642;28;20449;-86
2023/01/22 01:14:33;;;;;;;10.02;7.57;;;;;;;;;;5011999;28;20037;-72
2023/01/22 01:16:59;;;;;;;9.35;6.82;;;;;;;;;;5005607;28;20049;-86
2023/01/22 01:19:25;;;;;;;9.57;8.30;;;;;;;;;;5006296;28;20049;-86
2023/01/22 01:21:51;;;;;;;10.68;7.50;;;;;;;;;;5010232;28;20072;-86
2023/01/22 01:24:17;;;;;;;9.73;7.22;;;;;;;;;;5007786;28;20057;-86
2023/01/22 01:26:43;;;;;;;9.32;7.38;;;;;;;;;;5005604;28;20125;-86
2023/01/22 01:29:10;;;;;;;8.93;7.32;;;;;;;;;;5015114;28;20549;-86
2023/01/22 01:31:37;;;;;;;10.55;7.05;;;;;;;;;;5026105;28;20045;-87
2023/01/22 01:34:03;;;;;;;8.75;6.65;;;;;;;;;;5014351;28;20486;-86
2023/01/22 01:36:29;;;;;;;8.90;7.03;;;;;;;;;;4992327;28;20387;-85
2023/01/22 01:38:56;;;;;;;9.75;6.68;;;;;;;;;;5009072;28;20415;-86
2023/01/22 01:41:23;;;;;;;8.77;6.88;;;;;;;;;;5008892;28;20053;-86
2023/01/22 01:44:08;;;;;;;9.50;6.30;;;;;;;;;;5010988;28;20041;-86
2023/01/22 01:46:36;;;;;;;8.82;6.90;;;;;;;;;;5006094;28;20102;-85
2023/01/22 01:49:02;;;;;;;9.15;6.60;;;;;;;;;;5009742;28;20034;-87
2023/01/22 01:51:29;;;;;;;8.80;6.60;;;;;;;;;;5008221;28;21790;-85
2023/01/22 01:53:55;;;;;;;8.30;6.90;;;;;;;;;;5008915;28;20486;-87
2023/01/22 01:56:25;;;;;;;9.75;7.22;;;;;;;;;;5009487;28;20401;-85
2023/01/22 01:58:53;;;;;;;10.07;7.32;;;;;;;;;;5007430;28;20042;-86
2023/01/22 02:01:19;;;;;;;9.80;6.88;;;;;;;;;;5008756;28;20493;-86
2023/01/22 02:03:46;;;;;;;9.15;7.25;;;;;;;;;;5026392;28;20366;-86
2023/01/22 02:06:14;;;;;;;10.00;7.15;;;;;;;;;;5006829;28;20050;-86
2023/01/22 02:08:42;;;;;;;10.45;7.28;;;;;;;;;;5009100;28;20050;-86
2023/01/22 02:11:08;;;;;;;8.93;7.30;;;;;;;;;;5011187;28;20060;-85
2023/01/22 02:13:35;;;;;;;10.02;6.72;;;;;;;;;;5008750;28;20053;-86
2023/01/22 02:16:01;;;;;;;8.65;7.22;;;;;;;;;;5006215;28;20482;-86
2023/01/22 02:18:27;;;;;;;9.70;7.38;;;;;;;;;;5009418;28;20056;-86
2023/01/22 02:20:55;;;;;;;12.65;7.78;;;;;;;;;;5009704;28;20045;-87
2023/01/22 02:23:21;;;;;;;12.48;7.60;;;;;;;;;;5009503;28;20050;-86
2023/01/22 02:25:47;;;;;;;9.75;7.82;;;;;;;;;;5005666;28;20042;-86
2023/01/22 02:28:13;;;;;;;10.80;7.82;;;;;;;;;;5008456;28;20038;-86
2023/01/22 02:30:39;;;;;;;11.40;7.65;;;;;;;;;;5010973;28;20050;-86
2023/01/22 02:33:05;;;;;;;10.98;7.88;;;;;;;;;;5002361;28;20042;-86
2023/01/22 02:35:31;;;;;;;10.15;7.75;;;;;;;;;;5008324;28;20061;-86
2023/01/22 02:37:57;;;;;;;8.02;6.65;;;;;;;;;;5010089;28;20046;-86
2023/01/22 02:40:23;;;;;;;10.07;7.28;;;;;;;;;;5006859;28;20069;-86
2023/01/22 02:42:49;;;;;;;9.85;7.47;;;;;;;;;;5009698;28;20093;-86
2023/01/22 02:45:16;;;;;;;9.73;7.40;;;;;;;;;;5006736;28;20478;-87
2023/01/22 02:47:41;;;;;;;8.73;6.78;;;;;;;;;;5009184;28;20049;-87
2023/01/22 02:50:08;;;;;;;10.38;7.50;;;;;;;;;;5015228;28;20136;-86
2023/01/22 02:52:34;;;;;;;8.52;7.15;;;;;;;;;;5013023;28;20069;-85
2023/01/22 02:55:00;;;;;;;9.60;7.40;;;;;;;;;;5003595;28;20053;-86
2023/01/22 02:57:28;;;;;;;8.00;6.97;;;;;;;;;;5004805;28;20072;-86
2023/01/22 02:59:54;;;;;;;8.85;7.10;;;;;;;;;;5016871;28;20069;-87
2023/01/22 03:02:20;;;;;;;9.50;7.15;;;;;;;;;;5013452;28;20157;-86
2023/01/22 03:04:48;;;;;;;8.38;7.05;;;;;;;;;;5012070;28;20766;-86
2023/01/22 03:07:16;;;;;;;9.82;7.30;;;;;;;;;;5010976;28;20050;-86
2023/01/22 03:09:42;;;;;;;10.45;7.28;;;;;;;;;;5010585;28;20129;-86
2023/01/22 03:12:08;;;;;;;9.15;7.00;;;;;;;;;;5013271;28;20054;-86
2023/01/22 03:22:49;;;;;;;8.48;7.32;;;;;;;;;;5004058;28;20073;-86
2023/01/22 03:25:15;;;;;;;11.75;7.50;;;;;;;;;;5011598;28;20092;-86
2023/01/22 03:28:07;;;;;;;10.88;7.28;;;;;;;;;;5011878;28;20070;-86
2023/01/22 03:30:27;;;;;;;8.77;6.88;;;;;;;;;;5012624;28;20100;-87
2023/01/22 03:32:54;;;;;;;10.43;6.80;;;;;;;;;;5013718;28;20387;-87
2023/01/22 03:35:20;;;;;;;10.90;7.00;;;;;;;;;;5027998;28;20441;-87
2023/01/22 03:37:47;;;;;;;9.80;6.72;;;;;;;;;;5010099;28;20504;-86
2023/01/22 03:40:13;;;;;;;10.27;6.97;;;;;;;;;;5009481;28;20117;-87
2023/01/22 03:42:39;;;;;;;12.13;7.57;;;;;;;;;;5011993;28;20141;-87
2023/01/22 03:45:05;;;;;;;10.70;7.30;;;;;;;;;;5012141;28;20076;-87
2023/01/22 03:47:31;;;;;;;10.38;6.97;;;;;;;;;;5011819;28;20046;-87
2023/01/22 03:49:57;;;;;;;9.05;6.90;;;;;;;;;;5010789;28;20494;-87
2023/01/22 03:52:23;;;;;;;11.40;7.15;;;;;;;;;;5010280;28;20133;-87
2023/01/22 03:54:49;;;;;;;10.43;6.72;;;;;;;;;;5009156;28;20054;-87
2023/01/22 03:57:15;;;;;;;9.25;6.70;;;;;;;;;;5008809;28;20394;-87
2023/01/22 03:59:41;;;;;;;9.68;6.97;;;;;;;;;;5007462;28;20084;-87
2023/01/22 04:02:07;;;;;;;11.73;6.55;;;;;;;;;;5010550;28;20065;-87
2023/01/22 04:04:33;;;;;;;9.75;7.43;;;;;;;;;;5011402;28;20120;-87
2023/01/22 04:06:59;;;;;;;10.60;7.13;;;;;;;;;;5009593;28;20451;-85
2023/01/22 04:09:25;;;;;;;8.88;6.28;;;;;;;;;;5010841;28;20062;-86
2023/01/22 04:11:51;;;;;;;10.52;6.40;;;;;;;;;;5020195;28;20041;-87
2023/01/22 04:14:17;;;;;;;9.18;6.03;;;;;;;;;;5011206;28;20045;-87
2023/01/22 04:16:43;;;;;;;9.32;6.38;;;;;;;;;;5018340;28;20049;-87
2023/01/22 04:19:09;;;;;;;9.18;6.55;;;;;;;;;;5012213;28;20054;-86
2023/01/22 04:21:35;;;;;;;8.68;5.97;;;;;;;;;;5009989;28;20045;-86
2023/01/22 04:24:01;;;;;;;9.93;5.57;;;;;;;;;;5006310;28;20042;-86
2023/01/22 04:26:27;;;;;;;7.30;5.07;;;;;;;;;;5011144;28;20048;-86
2023/01/22 04:28:54;;;;;;;6.20;4.68;;;;;;;;;;5010529;28;20049;-86
2023/01/22 04:31:20;;;;;;;8.85;4.82;;;;;;;;;;5007652;28;20049;-87
2023/01/22 04:33:46;;;;;;;7.53;4.40;;;;;;;;;;5009978;28;20096;-87
2023/01/22 04:36:12;;;;;;;8.88;4.65;;;;;;;;;;5007140;28;20963;-86
2023/01/22 04:38:38;;;;;;;5.88;4.35;;;;;;;;;;5009620;28;20053;-86
2023/01/22 04:41:05;;;;;;;5.95;4.10;;;;;;;;;;5008626;28;20038;-86
2023/01/22 04:43:31;;;;;;;6.53;4.45;;;;;;;;;;5009833;28;20413;-85
2023/01/22 04:45:57;;;;;;;6.20;4.20;;;;;;;;;;5012033;28;20045;-86
2023/01/22 04:48:23;;;;;;;7.03;4.63;;;;;;;;;;5008352;28;20046;-86
2023/01/22 04:50:49;;;;;;;6.28;4.10;;;;;;;;;;5010361;28;20045;-86
2023/01/22 04:53:15;;;;;;;5.22;3.80;;;;;;;;;;5004900;28;20128;-86
2023/01/22 04:55:41;;;;;;;8.20;3.95;;;;;;;;;;5005645;28;20038;-86
2023/01/22 04:58:08;;;;;;;8.80;4.07;;;;;;;;;;5004137;28;20072;-86
2023/01/22 05:00:34;;;;;;;6.60;3.42;;;;;;;;;;5006635;28;20046;-84
2023/01/22 05:03:00;;;;;;;6.97;4.05;;;;;;;;;;5012087;28;20066;-84
2023/01/22 05:05:27;;;;;;;7.47;4.05;;;;;;;;;;5009936;28;20058;-84
2023/01/22 05:07:54;;;;;;;6.70;4.15;;;;;;;;;;5010433;28;20049;-86
2023/01/22 05:10:20;;;;;;;5.18;3.40;;;;;;;;;;5004935;28;20120;-86
2023/01/22 05:12:46;;;;;;;4.80;3.58;;;;;;;;;;5008723;28;20057;-86
2023/01/22 05:15:12;;;;;;;7.25;4.40;;;;;;;;;;5016179;28;20038;-86
2023/01/22 05:17:38;;;;;;;4.85;3.78;;;;;;;;;;5010080;28;20524;-86
2023/01/22 05:20:05;;;;;;;5.35;3.90;;;;;;;;;;5007866;28;20124;-87
2023/01/22 05:22:31;;;;;;;5.70;3.80;;;;;;;;;;5007955;28;20038;-85
2023/01/22 05:24:57;;;;;;;4.38;3.63;;;;;;;;;;5007885;28;20042;-87
2023/01/22 05:27:23;;;;;;;6.18;3.83;;;;;;;;;;5011129;28;20046;-87
2023/01/22 05:29:49;;;;;;;6.88;4.25;;;;;;;;;;5009843;28;20042;-87
2023/01/22 05:32:15;;;;;;;6.75;4.78;;;;;;;;;;5009275;28;20441;-86
2023/01/22 05:34:41;;;;;;;7.15;5.03;;;;;;;;;;5017667;28;20041;-86
2023/01/22 05:37:07;;;;;;;10.23;5.03;;;;;;;;;;5013053;28;20038;-87
2023/01/22 05:39:33;;;;;;;9.23;5.18;;;;;;;;;;5011804;28;20042;-86
2023/01/22 05:41:59;;;;;;;7.00;5.22;;;;;;;;;;5005065;28;20048;-85
2023/01/22 05:44:25;;;;;;;11.10;4.85;;;;;;;;;;5004498;28;20038;-86
2023/01/22 05:46:52;;;;;;;5.28;4.03;;;;;;;;;;5012299;28;20100;-87
2023/01/22 05:49:18;;;;;;;7.07;4.55;;;;;;;;;;5007959;28;20054;-87
2023/01/22 05:51:43;;;;;;;6.53;4.60;;;;;;;;;;5011736;28;20053;-87
2023/01/22 05:54:10;;;;;;;6.13;4.65;;;;;;;;;;5012195;28;20462;-86
2023/01/22 05:56:36;;;;;;;7.63;4.22;;;;;;;;;;5005989;28;20149;-87
2023/01/22 05:59:01;;;;;;;8.93;5.78;;;;;;;;;;5005794;28;20129;-87
2023/01/22 06:01:27;;;;;;;8.80;5.80;;;;;;;;;;5008399;28;20126;-85
2023/01/22 06:03:54;;;;;;;7.32;4.93;;;;;;;;;;5009361;28;20478;-86
2023/01/22 06:06:20;;;;;;;7.88;5.15;;;;;;;;;;5010823;28;20046;-86
2023/01/22 06:08:46;;;;;;;8.95;5.32;;;;;;;;;;5006272;28;20053;-86
2023/01/22 06:11:14;;;;;;;8.23;5.45;;;;;;;;;;5008156;28;20389;-86
2023/01/22 06:13:40;;;;;;;9.45;5.50;;;;;;;;;;5006465;28;20072;-85
2023/01/22 06:16:06;;;;;;;9.65;5.57;;;;;;;;;;5007791;28;20045;-85
2023/01/22 06:18:32;;;;;;;6.85;5.47;;;;;;;;;;5010057;28;20442;-87
2023/01/22 06:21:02;;;;;;;8.63;5.50;;;;;;;;;;5015174;28;20041;-86
2023/01/22 06:23:28;;;;;;;8.73;5.93;;;;;;;;;;5019161;28;20129;-86
2023/01/22 06:25:55;;;;;;;8.05;5.75;;;;;;;;;;5012866;28;20476;-88
2023/01/22 06:28:22;;;;;;;7.30;5.20;;;;;;;;;;5004176;28;20053;-87
2023/01/22 06:30:48;;;;;;;9.05;5.40;;;;;;;;;;5014859;28;20081;-87
2023/01/22 06:33:14;;;;;;;8.30;5.20;;;;;;;;;;5012201;28;20068;-87
2023/01/22 06:35:40;;;;;;;8.55;5.32;;;;;;;;;;5014965;28;20049;-87
2023/01/22 06:38:06;;;;;;;7.65;5.25;;;;;;;;;;5014948;28;20489;-87
2023/01/22 06:40:33;;;;;;;8.82;6.10;;;;;;;;;;5013557;28;20042;-87
2023/01/22 06:43:02;;;;;;;8.85;5.75;;;;;;;;;;5012331;28;20053;-86
2023/01/22 06:45:28;;;;;;;7.78;5.43;;;;;;;;;;5000662;28;20117;-87
2023/01/22 06:47:54;;;;;;;8.75;5.95;;;;;;;;;;5013530;28;20136;-87
2023/01/22 06:50:20;;;;;;;6.97;5.82;;;;;;;;;;5018785;28;20117;-87
2023/01/22 06:52:46;;;;;;;7.35;5.63;;;;;;;;;;5013411;28;20045;-88
2023/01/22 06:55:12;;;;;;;7.07;5.75;;;;;;;;;;5008685;28;20109;-87
2023/01/22 06:57:38;;;;;;;9.90;6.03;;;;;;;;;;5010697;28;20096;-87
2023/01/22 07:00:05;;;;;;;9.90;6.00;;;;;;;;;;5007655;28;20044;-87
2023/01/22 07:02:31;;;;;;;6.93;5.82;;;;;;;;;;5012428;28;20095;-87
2023/01/22 07:04:57;;;;;;;10.15;6.40;;;;;;;;;;5016858;28;20042;-86
2023/01/22 07:07:23;;;;;;;8.25;5.88;;;;;;;;;;5012459;28;20054;-87
2023/01/22 07:09:49;;;;;;;8.90;6.70;;;;;;;;;;5015310;28;20057;-87
2023/01/22 07:12:15;;;;;;;11.38;6.72;;;;;;;;;;5010835;28;20077;-87
2023/01/22 07:14:41;;;;;;;9.68;6.63;;;;;;;;;;5013414;28;20054;-87
2023/01/22 07:17:07;;;;;;;11.38;6.80;;;;;;;;;;5010102;28;20037;-87
2023/01/22 07:19:33;;;;;;;8.18;6.35;;;;;;;;;;5005792;28;20489;-87
2023/01/22 07:21:59;;;;;;;7.90;6.18;;;;;;;;;;5010916;28;20033;-86
2023/01/22 07:24:26;;;;;;;8.50;6.50;;;;;;;;;;5007196;28;20054;-87
2023/01/22 07:26:52;;;;;;;8.20;5.70;;;;;;;;;;5012642;28;20056;-87
2023/01/22 07:29:18;;;;;;;8.77;6.43;;;;;;;;;;5015638;28;20128;-87
2023/01/22 07:31:44;;;;;;;9.55;6.03;;;;;;;;;;5017441;28;20129;-87
2023/01/22 07:34:12;;;;;;;9.73;6.50;;;;;;;;;;5009828;28;20527;-87
2023/01/22 07:36:38;;;;;;;8.93;6.28;;;;;;;;;;5011751;28;20057;-87
2023/01/22 07:39:05;;;;;;;8.80;6.35;;;;;;;;;;5011854;28;20038;-87
2023/01/22 07:41:31;;;;;;;8.43;6.90;;;;;;;;;;5008387;28;20397;-87
2023/01/22 07:43:59;;;;;;;9.40;6.78;;;;;;;;;;5013436;28;20072;-87
2023/01/22 07:46:25;;;;;;;9.57;5.75;;;;;;;;;;5014331;28;20049;-87
2023/01/22 07:48:51;;;;;;;7.65;6.38;;;;;;;;;;5010158;28;20056;-87
2023/01/22 07:51:17;;;;;;;11.75;5.88;;;;;;;;;;5009810;28;20041;-87
2023/01/22 07:53:43;;;;;;;13.13;6.50;;;;;;;;;;5006593;28;20045;-87
2023/01/22 07:56:09;;;;;;;8.75;6.38;;;;;;;;;;5012222;28;20164;-86
2023/01/22 07:58:35;;;;;;;8.00;6.22;;;;;;;;;;5011227;28;20088;-88
2023/01/22 08:01:04;;;;;;;9.77;6.30;;;;;;;;;;5015665;28;20070;-87
2023/01/22 08:03:32;;;;;;;7.55;5.63;;;;;;;;;;5010464;28;20133;-87
2023/01/22 08:05:59;;;;;;;7.50;5.55;;;;;;;;;;5016331;28;20046;-85
2023/01/22 08:08:25;;;;;;;6.75;5.55;;;;;;;;;;5005004;28;20058;-87
2023/01/22 08:10:51;;;;;;;9.77;6.10;;;;;;;;;;5006124;28;20500;-86
2023/01/22 08:13:17;;;;;;;10.63;5.68;;;;;;;;;;5006683;28;20390;-87
2023/01/22 08:15:43;;;;;;;8.68;5.97;;;;;;;;;;5013919;28;20409;-86
2023/01/22 08:18:10;;;;;;;10.00;5.93;;;;;;;;;;5010614;28;20046;-86
2023/01/22 08:20:36;;;;;;;7.65;5.35;;;;;;;;;;5011966;28;20034;-87
2023/01/22 08:23:02;;;;;;;7.22;5.28;;;;;;;;;;5012311;28;20064;-86
2023/01/22 08:25:28;;;;;;;8.32;6.20;;;;;;;;;;5013247;28;20414;-86
2023/01/22 08:27:54;;;;;;;10.30;5.53;;;;;;;;;;5005390;28;20052;-87
2023/01/22 08:30:20;;;;;;;10.98;6.10;;;;;;;;;;5018296;28;20374;-87
2023/01/22 08:32:50;;;;;;;9.85;6.03;;;;;;;;;;5013179;28;20520;-86
2023/01/22 08:35:16;;;;;;;6.93;5.50;;;;;;;;;;5008204;28;20072;-87
2023/01/22 08:37:45;;;;;;;7.68;5.55;;;;;;;;;;5011591;28;20045;-86
2023/01/22 08:40:12;;;;;;;7.75;6.18;;;;;;;;;;5006899;28;20050;-86
2023/01/22 08:42:41;;;;;;;8.93;5.85;;;;;;;;;;5013231;28;20034;-87
2023/01/22 08:45:08;;;;;;;8.48;5.65;;;;;;;;;;5008988;28;20104;-86
2023/01/22 08:47:34;;;;;;;6.75;5.40;;;;;;;;;;5013265;28;20069;-86
2023/01/22 08:50:03;;;;;;;9.23;5.80;;;;;;;;;;5009274;28;20042;-86
2023/01/22 08:52:29;;;;;;;9.85;6.00;;;;;;;;;;5012697;28;20490;-85
2023/01/22 08:54:55;;;;;;;7.90;4.63;;;;;;;;;;5015816;28;20117;-87
2023/01/22 08:57:21;;;;;;;8.35;5.05;;;;;;;;;;5006702;28;20052;-87
2023/01/22 08:59:47;;;;;;;9.57;6.03;;;;;;;;;;5008876;28;20136;-85
2023/01/22 09:02:13;;;;;;;8.27;5.72;;;;;;;;;;5001067;28;20050;-85
2023/01/22 09:04:40;;;;;;;8.57;5.63;;;;;;;;;;4998433;28;20049;-87
2023/01/22 09:07:07;;;;;;;7.28;5.13;;;;;;;;;;5003689;28;20049;-84
2023/01/22 09:09:33;;;;;;;6.45;4.78;;;;;;;;;;5011533;28;20054;-85
2023/01/22 09:11:59;;;;;;;7.63;5.38;;;;;;;;;;5008071;28;20132;-86
2023/01/22 09:14:25;;;;;;;5.65;4.85;;;;;;;;;;5009519;28;20049;-86
2023/01/22 09:16:52;;;;;;;7.13;5.30;;;;;;;;;;5010871;28;20049;-81
2023/01/22 09:19:18;;;;;;;7.30;5.50;;;;;;;;;;5023774;28;20045;-83
2023/01/22 09:21:44;;;;;;;7.70;5.63;;;;;;;;;;5011331;28;20049;-81
2023/01/22 09:24:13;;;;;;;10.85;5.93;;;;;;;;;;5008991;28;20064;-84
2023/01/22 09:26:39;;;;;;;7.13;5.82;;;;;;;;;;4999305;28;20092;-86
2023/01/22 09:29:05;;;;;;;10.18;6.13;;;;;;;;;;5028406;28;20057;-85
2023/01/22 09:31:36;;;;;;;6.15;5.28;;;;;;;;;;5011995;28;20049;-85
2023/01/22 09:34:05;;;;;;;5.03;4.53;;;;;;;;;;4996898;28;20109;-82
2023/01/22 09:36:31;;;;;;;6.00;5.22;;;;;;;;;;5001676;28;20050;-78
2023/01/22 09:38:57;;;;;;;8.90;6.07;;;;;;;;;;5029871;28;20052;-80
2023/01/22 09:41:38;;;;;;;6.50;5.18;;;;;;;;;;5015832;28;20052;-81
2023/01/22 09:44:40;;;;;;;8.52;5.28;;;;;;;;;;5009969;28;20057;-81
2023/01/22 09:47:42;;;;;;;6.38;5.10;;;;;;;;;;4970076;28;20078;-84
2023/01/22 09:50:20;;;;;;;7.13;4.90;;;;;;;;;;5024106;28;20037;-82
2023/01/22 09:53:06;;;;;;;6.47;4.40;;;;;;;;;;5014491;28;20037;-85
2023/01/22 09:55:52;;;;;;;8.27;4.95;;;;;;;;;;5014093;28;20050;-80
2023/01/22 09:58:21;;;;;;;9.75;5.25;;;;;;;;;;5033436;28;20054;-81
2023/01/22 10:00:55;;;;;;;8.70;5.35;;;;;;;;;;4994232;28;20066;-81
2023/01/22 10:03:24;;;;;;;8.75;5.30;;;;;;;;;;5040243;28;20053;-81
2023/01/22 10:05:59;;;;;;;8.98;5.63;;;;;;;;;;5037808;28;20042;-79
2023/01/22 10:08:31;;;;;;;6.75;4.90;;;;;;;;;;4992373;28;20057;-80
2023/01/22 10:10:59;;;;;;;7.68;5.22;;;;;;;;;;4996825;28;20049;-80
2023/01/22 10:13:35;;;;;;;11.68;5.63;;;;;;;;;;5048382;28;20058;-83
2023/01/22 10:16:02;;;;;;;8.75;5.18;;;;;;;;;;5025465;28;20037;-85
2023/01/22 10:18:47;;;;;;;7.80;5.28;;;;;;;;;;5030863;28;20077;-85
2023/01/22 10:21:21;;;;;;;8.15;4.80;;;;;;;;;;5036279;28;20102;-85
2023/01/22 10:23:56;;;;;;;7.03;4.97;;;;;;;;;;5013012;28;20045;-85
2023/01/22 10:26:34;;;;;;;6.65;4.72;;;;;;;;;;5031317;28;20049;-86
2023/01/22 10:29:06;;;;;;;5.20;4.50;;;;;;;;;;5022959;28;20504;-85
2023/01/22 10:31:42;;;;;;;6.47;4.82;;;;;;;;;;5034956;28;20070;-86
2023/01/22 10:34:21;;;;;;;8.95;4.90;;;;;;;;;;5006695;28;20042;-86
2023/01/22 10:36:52;;;;;;;8.52;4.85;;;;;;;;;;5021724;28;20052;-85
2023/01/22 10:39:22;;;;;;;6.50;4.70;;;;;;;;;;5001796;28;20042;-85
2023/01/22 10:41:59;;;;;;;13.27;5.33;;;;;;;;;;5017542;28;20037;-85
2023/01/22 10:44:26;;;;;;;5.60;4.47;;;;;;;;;;5005910;28;20049;-86
2023/01/22 10:46:54;;;;;;;11.15;5.38;;;;;;;;;;5033250;28;20042;-86
2023/01/22 10:49:24;;;;;;;8.32;5.43;;;;;;;;;;5008207;28;20034;-85
2023/01/22 10:52:06;;;;;;;5.82;4.65;;;;;;;;;;5010707;28;20046;-85
2023/01/22 10:54:42;;;;;;;6.05;4.88;;;;;;;;;;5020017;28;20045;-85
2023/01/22 10:57:12;;;;;;;7.25;4.65;;;;;;;;;;5035132;28;20093;-85
2023/01/22 10:59:47;;;;;;;7.43;4.65;;;;;;;;;;5015760;28;20104;-85
2023/01/22 11:02:42;;;;;;;8.35;5.20;;;;;;;;;;4997721;28;20034;-85
2023/01/22 11:05:41;;;;;;;6.30;4.53;;;;;;;;;;5017417;28;20053;-86
2023/01/22 11:08:18;;;;;;;9.48;4.85;;;;;;;;;;5003688;28;20232;-86
2023/01/22 11:11:04;;;;;;;7.40;4.93;;;;;;;;;;5038850;28;20150;-85
2023/01/22 11:13:36;;;;;;;5.38;4.60;;;;;;;;;;5001052;28;20050;-85
2023/01/22 11:16:28;;;;;;;6.05;5.20;;;;;;;;;;5012587;28;20505;-87
2023/01/22 11:18:55;;;;;;;6.70;4.75;;;;;;;;;;5027770;28;20046;-85
2023/01/22 11:21:50;;;;;;;;;;;;;;;;;;;;;
2023/01/22 11:24:31;;;;;;;8.32;5.22;;;;;;;;;;5016484;28;20050;-86
2023/01/22 11:27:09;;;;;;;6.20;4.80;;;;;;;;;;5019491;28;20042;-86
2023/01/22 11:29:55;;;;;;;6.88;5.63;;;;;;;;;;5020549;28;20042;-85
2023/01/22 11:32:33;;;;;;;8.90;5.00;;;;;;;;;;5007366;28;20062;-84
2023/01/22 11:35:02;;;;;;;8.98;5.63;;;;;;;;;;5019776;28;20138;-84
2023/01/22 11:37:29;;;;;;;6.72;5.60;;;;;;;;;;5021561;28;20057;-82
2023/01/22 11:40:18;;;;;;;8.98;5.82;;;;;;;;;;5015735;28;20046;-83
2023/01/22 11:43:04;;;;;;;9.68;6.45;;;;;;;;;;5023409;28;20042;-84
2023/01/22 11:45:42;;;;;;;9.57;6.40;;;;;;;;;;5023148;28;20047;-86
2023/01/22 11:48:39;;;;;;;9.32;6.22;;;;;;;;;;5021655;28;20065;-86
2023/01/22 11:51:11;;;;;;;9.18;6.63;;;;;;;;;;5010764;28;20056;-86
2023/01/22 11:53:59;;;;;;;12.02;7.03;;;;;;;;;;5012521;28;20541;-86
2023/01/22 11:56:31;;;;;;;7.60;6.40;;;;;;;;;;5007641;28;21178;-86
2023/01/22 11:58:57;;;;;;;10.05;7.13;;;;;;;;;;5005041;28;20513;-86
2023/01/22 12:01:40;;;;;;;8.52;6.70;;;;;;;;;;5007753;28;20121;-86
2023/01/22 12:04:16;;;;;;;10.88;6.85;;;;;;;;;;5005347;28;20095;-86
2023/01/22 12:06:49;;;;;;;9.85;7.55;;;;;;;;;;5007117;28;20053;-86
2023/01/22 12:09:23;;;;;;;10.93;6.50;;;;;;;;;;5008206;28;20383;-86
2023/01/22 12:11:55;;;;;;;9.05;6.60;;;;;;;;;;5011129;28;20069;-87
2023/01/22 12:14:32;;;;;;;10.05;7.05;;;;;;;;;;5004837;28;21059;-85
2023/01/22 12:17:10;;;;;;;12.20;6.68;;;;;;;;;;5021447;28;20054;-88
2023/01/22 12:19:42;;;;;;;10.35;7.20;;;;;;;;;;5007903;28;20045;-87
2023/01/22 12:22:14;;;;;;;9.80;7.13;;;;;;;;;;5008892;28;20038;-87
2023/01/22 12:24:46;;;;;;;8.23;5.78;;;;;;;;;;5011932;28;20038;-87
2023/01/22 12:27:19;;;;;;;6.65;5.13;;;;;;;;;;5011749;28;20065;-87
2023/01/22 12:29:45;;;;;;;7.43;5.85;;;;;;;;;;5024801;28;20046;-85
2023/01/22 12:32:14;;;;;;;8.52;6.20;;;;;;;;;;5028093;28;20046;-86
2023/01/22 12:34:46;;;;;;;8.35;6.38;;;;;;;;;;5013335;28;20057;-87
2023/01/22 12:37:19;;;;;;;11.17;6.97;;;;;;;;;;5004854;28;20176;-86
2023/01/22 12:39:48;;;;;;;10.75;6.28;;;;;;;;;;5011411;28;20317;-83
2023/01/22 12:42:23;;;;;;;6.63;5.70;;;;;;;;;;5009502;28;20042;-86
2023/01/22 12:44:49;;;;;;;8.13;5.88;;;;;;;;;;5039368;28;20061;-85
2023/01/22 12:47:28;;;;;;;10.15;6.18;;;;;;;;;;5005597;28;20045;-88
2023/01/22 12:49:54;;;;;;;12.68;8.18;;;;;;;;;;5013718;28;20049;-86
2023/01/22 12:52:28;;;;;;;8.95;6.32;;;;;;;;;;5005486;28;20050;-88
2023/01/22 12:54:54;;;;;;;8.55;6.22;;;;;;;;;;5014354;28;20094;-82
2023/01/22 12:57:20;;;;;;;8.07;5.80;;;;;;;;;;5007815;28;20049;-85
2023/01/22 12:59:47;;;;;;;7.88;5.82;;;;;;;;;;5017692;28;20050;-86
2023/01/22 13:02:39;;;;;;;7.15;5.95;;;;;;;;;;5027465;28;20056;-87
2023/01/22 13:05:17;;;;;;;7.32;6.03;;;;;;;;;;5005248;28;20045;-85
2023/01/22 13:07:43;;;;;;;9.05;5.82;;;;;;;;;;5006819;28;20573;-83
2023/01/22 13:10:23;;;;;;;7.93;6.18;;;;;;;;;;5020878;28;20050;-83
2023/01/22 13:12:50;;;;;;;8.00;6.25;;;;;;;;;;5025490;28;20444;-83
2023/01/22 13:15:24;;;;;;;6.95;5.90;;;;;;;;;;5015590;28;20084;-85
2023/01/22 13:18:01;;;;;;;8.38;6.05;;;;;;;;;;5007853;28;20077;-86
2023/01/22 13:20:29;;;;;;;7.50;5.60;;;;;;;;;;5011811;28;20155;-84
2023/01/22 13:22:57;;;;;;;7.20;5.35;;;;;;;;;;5011837;28;20129;-84
2023/01/22 13:25:30;;;;;;;6.90;5.15;;;;;;;;;;5002925;28;20037;-85
2023/01/22 13:27:57;;;;;;;7.38;5.75;;;;;;;;;;5006794;28;20824;-88
2023/01/22 13:30:27;;;;;;;6.97;5.57;;;;;;;;;;5009775;28;20136;-88
2023/01/22 13:33:04;;;;;;;6.10;4.70;;;;;;;;;;5011968;28;20042;-88
2023/01/22 13:35:43;;;;;;;5.18;4.10;;;;;;;;;;5009615;28;20041;-88
2023/01/22 13:38:23;;;;;;;5.85;4.55;;;;;;;;;;5010920;28;20393;-87
2023/01/22 13:40:53;;;;;;;9.38;4.75;;;;;;;;;;5004325;28;20049;-88
2023/01/22 13:43:21;;;;;;;11.93;5.60;;;;;;;;;;5004552;28;20049;-88
2023/01/22 13:45:48;;;;;;;7.43;4.88;;;;;;;;;;5005599;28;20046;-88
2023/01/22 13:48:16;;;;;;;7.30;5.40;;;;;;;;;;5010711;28;20046;-88
2023/01/22 13:50:45;;;;;;;7.00;5.32;;;;;;;;;;5012294;28;20088;-88
2023/01/22 13:53:18;;;;;;;7.93;4.85;;;;;;;;;;5005354;28;20050;-88
2023/01/22 13:55:44;;;;;;;6.82;4.82;;;;;;;;;;5010605;28;20076;-88
2023/01/22 13:58:29;;;;;;;5.90;5.00;;;;;;;;;;5008076;28;20045;-88
2023/01/22 14:00:55;;;;;;;5.93;4.47;;;;;;;;;;5007134;28;20433;-89
2023/01/22 14:03:26;;;;;;;5.45;4.80;;;;;;;;;;5009099;28;20497;-88
2023/01/22 14:06:21;;;;;;;5.50;4.60;;;;;;;;;;5004788;28;20116;-89
2023/01/22 14:08:48;;;;;;;6.78;4.28;;;;;;;;;;5019935;28;20409;-88
2023/01/22 14:11:15;;;;;;;7.18;4.40;;;;;;;;;;5007546;28;20042;-88
2023/01/22 14:13:41;;;;;;;5.22;4.35;;;;;;;;;;5014801;28;20129;-88
2023/01/22 14:16:08;;;;;;;6.47;4.72;;;;;;;;;;5005964;28;20056;-88
2023/01/22 14:18:34;;;;;;;7.22;5.43;;;;;;;;;;5008503;28;20038;-88
2023/01/22 14:21:00;;;;;;;6.85;5.07;;;;;;;;;;5010027;28;20038;-88
2023/01/22 14:23:26;;;;;;;5.90;4.57;;;;;;;;;;5012457;28;20050;-88
2023/01/22 14:25:53;;;;;;;5.78;4.95;;;;;;;;;;5012097;28;20041;-88
2023/01/22 14:28:20;;;;;;;8.00;5.22;;;;;;;;;;5007989;28;20057;-88
2023/01/22 14:30:47;;;;;;;5.70;5.10;;;;;;;;;;5003469;28;20080;-88
2023/01/22 14:33:25;;;;;;;7.53;5.10;;;;;;;;;;5007688;28;20053;-87
2023/01/22 14:35:52;;;;;;;7.90;5.57;;;;;;;;;;5006493;28;20092;-89
2023/01/22 14:38:18;;;;;;;6.30;4.90;;;;;;;;;;5007836;28;20455;-88
2023/01/22 14:40:44;;;;;;;7.35;5.50;;;;;;;;;;5011099;28;20053;-88
2023/01/22 14:43:10;;;;;;;9.43;5.60;;;;;;;;;;5008640;28;20034;-88
2023/01/22 14:45:39;;;;;;;8.75;6.07;;;;;;;;;;5014310;28;20409;-89
2023/01/22 14:48:05;;;;;;;8.63;5.85;;;;;;;;;;5010530;28;20529;-88
2023/01/22 14:50:31;;;;;;;7.93;5.90;;;;;;;;;;5008346;28;20038;-88
2023/01/22 14:52:58;;;;;;;6.88;6.07;;;;;;;;;;5009304;28;20065;-89
2023/01/22 14:55:24;;;;;;;8.50;6.18;;;;;;;;;;5015734;28;20058;-88
2023/01/22 14:57:51;;;;;;;8.77;5.68;;;;;;;;;;5020300;28;20501;-89
2023/01/22 15:00:17;;;;;;;9.05;6.03;;;;;;;;;;4991768;28;20144;-87